Time;durP1;ratioP1;P1;durP2;ratioP2;P2;SDS_P1;SDS_P2;PMS_P1;PMS_P2;Temp;Humidity;BMP_temperature;BMP_pressure;BME280_temperature;BME280_humidity;BME280_pressure;Samples;Min_cycle;Max_cycle;Signal;HPM_P1;HPM_P2
2023/12/05 00:00:08;;;;;;;20.30;12.48;;;;;;;-0.85;85.86;97662.19;5061622;28;20040;-74
2023/12/05 00:02:33;;;;;;;19.38;11.02;;;;;;;-0.38;87.21;97661.88;5054730;28;20021;-74
2023/12/05 00:04:58;;;;;;;21.75;11.20;;;;;;;0.03;86.08;97652.75;5057017;28;20681;-75
2023/12/05 00:07:25;;;;;;;19.83;10.95;;;;;;;0.14;84.05;97647.66;5061287;28;20512;-75
2023/12/05 00:09:51;;;;;;;20.70;11.50;;;;;;;0.31;85.49;97645.31;5064473;28;20112;-75
2023/12/05 00:12:16;;;;;;;18.55;10.60;;;;;;;0.69;83.46;97646.84;5063400;28;20033;-74
2023/12/05 00:14:41;;;;;;;15.65;10.15;;;;;;;0.35;83.30;97649.16;5061933;28;20064;-75
2023/12/05 00:17:07;;;;;;;19.25;10.57;;;;;;;0.73;84.73;97649.84;5062910;28;20490;-75
2023/12/05 00:19:32;;;;;;;17.27;10.80;;;;;;;0.58;83.49;97642.28;5059374;28;20064;-75
2023/12/05 00:21:58;;;;;;;15.60;9.13;;;;;;;1.10;83.69;97638.38;5054702;28;20032;-75
2023/12/05 00:24:23;;;;;;;19.02;12.05;;;;;;;0.12;82.17;97641.00;5054843;28;20056;-75
2023/12/05 00:26:48;;;;;;;17.02;11.57;;;;;;;0.34;83.83;97642.28;5061631;28;20036;-74
2023/12/05 00:29:14;;;;;;;15.98;10.52;;;;;;;0.27;85.18;97636.25;5056596;28;20081;-77
2023/12/05 00:31:39;;;;;;;16.33;10.65;;;;;;;0.42;84.83;97642.00;5057936;28;20078;-76
2023/12/05 00:34:05;;;;;;;18.02;10.57;;;;;;;-0.50;84.58;97642.53;5062178;28;20127;-76
2023/12/05 00:36:30;;;;;;;19.98;11.52;;;;;;;-0.07;85.25;97627.03;5063282;28;20083;-76
2023/12/05 00:38:55;;;;;;;16.33;8.93;;;;;;;0.62;85.68;97634.78;5060395;28;20119;-76
2023/12/05 00:41:21;;;;;;;21.42;10.82;;;;;;;0.67;83.99;97633.13;5059648;28;20033;-76
2023/12/05 00:43:46;;;;;;;17.45;9.93;;;;;;;0.92;84.44;97625.22;5063331;28;20033;-76
2023/12/05 00:46:11;;;;;;;19.83;10.77;;;;;;;0.70;84.02;97631.88;5059688;28;20821;-76
2023/12/05 00:48:37;;;;;;;14.23;10.13;;;;;;;0.93;83.75;97621.56;5062609;28;20059;-76
2023/12/05 00:51:02;;;;;;;17.05;11.18;;;;;;;0.21;83.99;97619.56;5059657;28;20025;-76
2023/12/05 00:53:28;;;;;;;15.73;10.48;;;;;;;0.64;85.46;97612.56;5062370;28;20025;-77
2023/12/05 00:55:53;;;;;;;20.42;10.57;;;;;;;0.65;84.08;97613.34;5062507;28;20124;-77
2023/12/05 00:58:19;;;;;;;16.00;10.35;;;;;;;0.90;83.69;97615.94;5058206;28;20593;-77
2023/12/05 01:00:44;;;;;;;18.17;9.27;;;;;;;0.99;83.54;97610.19;5065178;28;20073;-77
2023/12/05 01:03:10;;;;;;;17.48;10.25;;;;;;;1.02;82.65;97608.97;5055088;28;20054;-77
2023/12/05 01:05:35;;;;;;;16.23;9.63;;;;;;;0.84;84.08;97616.81;5056051;28;20485;-76
2023/12/05 01:08:00;;;;;;;17.95;9.88;;;;;;;0.87;84.52;97617.19;5060075;28;20040;-76
2023/12/05 01:10:26;;;;;;;14.27;9.85;;;;;;;0.72;85.38;97614.13;5054127;28;20037;-76
2023/12/05 01:12:51;;;;;;;16.08;9.10;;;;;;;1.07;84.17;97612.53;5059805;28;20090;-77
2023/12/05 01:15:16;;;;;;;15.45;9.52;;;;;;;1.06;83.92;97607.50;5055866;28;20039;-77
2023/12/05 01:17:42;;;;;;;14.45;9.88;;;;;;;0.99;82.60;97615.44;5055957;28;20094;-78
2023/12/05 01:20:11;;;;;;;15.75;9.82;;;;;;;0.81;83.17;97618.03;5064140;28;20054;-77
2023/12/05 01:22:36;;;;;;;18.40;9.85;;;;;;;0.23;84.15;97609.66;5064972;28;20032;-77
2023/12/05 01:25:01;;;;;;;18.58;10.90;;;;;;;-0.11;85.19;97608.25;5062941;28;20401;-77
2023/12/05 01:27:27;;;;;;;19.30;10.80;;;;;;;-0.08;86.59;97604.41;5060464;28;20040;-76
2023/12/05 01:29:53;;;;;;;16.20;9.00;;;;;;;0.54;86.60;97611.44;5052241;28;20502;-76
2023/12/05 01:32:18;;;;;;;18.23;11.02;;;;;;;0.64;84.87;97606.50;5063060;28;20033;-76
2023/12/05 01:34:43;;;;;;;16.88;10.68;;;;;;;0.31;85.03;97611.19;5057625;28;20028;-76
2023/12/05 01:37:09;;;;;;;17.50;10.68;;;;;;;0.18;85.86;97606.88;5060856;28;20044;-77
2023/12/05 01:39:34;;;;;;;16.23;9.43;;;;;;;0.60;86.24;97602.69;5047375;28;20403;-77
2023/12/05 01:41:59;;;;;;;13.15;8.68;;;;;;;0.75;85.58;97603.16;5056984;28;20041;-76
2023/12/05 01:44:25;;;;;;;15.70;9.77;;;;;;;0.74;85.79;97601.56;5058721;28;20025;-77
2023/12/05 01:46:51;;;;;;;17.33;10.05;;;;;;;0.47;85.83;97592.31;5054305;28;20098;-76
2023/12/05 01:49:17;;;;;;;13.60;8.50;;;;;;;0.88;85.06;97603.03;5056495;28;20024;-75
2023/12/05 01:51:44;;;;;;;17.90;11.05;;;;;;;0.31;84.49;97596.28;5057270;28;20540;-75
2023/12/05 01:54:09;;;;;;;17.75;9.90;;;;;;;0.85;85.40;97602.66;5053745;28;20041;-75
2023/12/05 01:56:35;;;;;;;20.85;11.20;;;;;;;0.94;84.52;97594.28;5053638;28;20037;-75
2023/12/05 01:59:00;;;;;;;18.27;10.10;;;;;;;0.89;84.20;97588.06;5050277;28;20068;-75
2023/12/05 02:01:26;;;;;;;17.15;9.35;;;;;;;1.37;83.92;97595.03;5057873;28;20025;-75
2023/12/05 02:03:52;;;;;;;17.20;10.80;;;;;;;1.08;82.75;97593.13;5063747;28;20039;-75
2023/12/05 02:06:18;;;;;;;16.88;10.05;;;;;;;0.98;84.85;97592.03;5053762;28;20063;-75
2023/12/05 02:08:45;;;;;;;16.70;9.85;;;;;;;0.87;84.96;97595.38;5064544;28;20082;-75
2023/12/05 02:11:11;;;;;;;15.95;9.32;;;;;;;0.81;84.45;97583.91;5058549;28;20554;-75
2023/12/05 02:13:37;;;;;;;16.23;9.68;;;;;;;0.82;85.47;97577.63;5062539;28;20033;-75
2023/12/05 02:16:39;;;;;;;17.10;10.25;;;;;;;1.05;84.99;97585.66;5063687;28;20071;-75
2023/12/05 02:19:30;;;;;;;18.92;10.57;;;;;;;0.83;85.00;97578.44;5061840;28;20032;-75
2023/12/05 02:21:59;;;;;;;20.30;11.35;;;;;;;0.48;85.08;97575.56;5059638;28;20024;-75
2023/12/05 02:24:40;;;;;;;14.48;9.90;;;;;;;0.57;85.22;97571.59;5057776;28;20036;-75
2023/12/05 02:27:28;;;;;;;19.45;11.30;;;;;;;0.60;85.21;97569.38;5057670;28;20667;-75
2023/12/05 02:29:53;;;;;;;15.10;9.38;;;;;;;0.83;86.24;97568.72;5047413;28;20060;-75
2023/12/05 02:32:19;;;;;;;16.55;10.63;;;;;;;0.73;85.67;97568.44;5057834;28;20681;-75
2023/12/05 02:34:45;;;;;;;18.75;11.18;;;;;;;0.36;84.76;97564.13;5059084;28;20040;-75
2023/12/05 02:37:26;;;;;;;17.75;11.20;;;;;;;0.48;86.44;97562.44;5058389;28;20032;-75
2023/12/05 02:40:07;;;;;;;18.33;11.60;;;;;;;0.59;85.33;97562.50;5057065;28;20027;-75
2023/12/05 02:42:33;;;;;;;13.85;10.25;;;;;;;0.75;85.14;97559.31;5060599;28;20032;-75
2023/12/05 02:45:02;;;;;;;19.92;11.82;;;;;;;0.51;84.65;97554.09;5064005;28;20388;-75
2023/12/05 02:47:30;;;;;;;20.25;11.60;;;;;;;0.34;85.71;97553.06;5055142;28;20033;-75
2023/12/05 02:49:56;;;;;;;18.20;10.98;;;;;;;1.00;85.77;97561.09;5059764;28;20417;-76
2023/12/05 02:52:21;;;;;;;15.82;9.73;;;;;;;1.02;84.77;97546.72;5059672;28;20029;-76
2023/12/05 02:54:47;;;;;;;16.00;8.75;;;;;;;1.02;84.32;97554.59;5062303;28;20047;-76
2023/12/05 02:57:12;;;;;;;14.85;9.77;;;;;;;1.29;84.88;97548.00;5057807;28;20059;-76
2023/12/05 02:59:38;;;;;;;13.50;9.27;;;;;;;1.02;85.05;97551.16;5063161;28;20037;-76
2023/12/05 03:02:03;;;;;;;16.30;10.57;;;;;;;0.92;84.59;97556.13;5055695;28;20537;-76
2023/12/05 03:04:30;;;;;;;20.60;12.20;;;;;;;0.65;84.67;97555.59;5058718;28;20413;-75
2023/12/05 03:06:55;;;;;;;21.55;11.40;;;;;;;0.93;85.62;97549.84;5051973;28;20045;-76
2023/12/05 03:09:21;;;;;;;17.55;9.73;;;;;;;0.88;85.33;97554.94;5072276;28;20469;-76
2023/12/05 03:11:46;;;;;;;17.40;10.88;;;;;;;0.86;86.05;97542.03;5045111;28;20482;-76
2023/12/05 03:14:13;;;;;;;19.40;11.38;;;;;;;0.50;85.10;97542.03;5061308;28;20059;-76
2023/12/05 03:16:38;;;;;;;21.58;13.02;;;;;;;0.46;85.25;97538.22;5043092;28;20033;-76
2023/12/05 03:19:04;;;;;;;16.80;9.90;;;;;;;0.88;86.45;97536.56;5042308;28;20587;-76
2023/12/05 03:21:29;;;;;;;17.98;10.48;;;;;;;0.59;85.17;97553.84;5059307;28;20024;-76
2023/12/05 03:23:54;;;;;;;18.45;10.70;;;;;;;0.54;84.45;97538.75;5062224;28;20043;-76
2023/12/05 03:26:21;;;;;;;19.52;10.32;;;;;;;0.97;85.95;97538.69;5055075;28;20040;-76
2023/12/05 03:28:51;;;;;;;20.85;11.90;;;;;;;0.32;84.72;97534.09;5066060;28;20032;-77
2023/12/05 03:31:17;;;;;;;19.33;11.07;;;;;;;1.04;86.47;97528.09;5058315;28;20036;-78
2023/12/05 03:33:43;;;;;;;20.95;10.70;;;;;;;1.25;86.02;97538.94;5056411;28;20029;-77
2023/12/05 03:36:10;;;;;;;22.63;12.50;;;;;;;0.85;84.05;97543.06;5069635;28;20599;-77
2023/12/05 03:38:38;;;;;;;19.23;11.13;;;;;;;0.85;84.60;97540.44;5053777;28;20068;-78
2023/12/05 03:41:04;;;;;;;18.23;11.30;;;;;;;0.76;85.67;97542.53;5057242;28;20021;-78
2023/12/05 03:43:29;;;;;;;19.85;12.27;;;;;;;0.81;85.10;97541.88;5059668;28;20363;-78
2023/12/05 03:45:54;;;;;;;15.60;10.35;;;;;;;0.99;84.82;97541.09;5062476;28;20040;-77
2023/12/05 03:48:20;;;;;;;14.63;9.55;;;;;;;1.07;84.14;97536.34;5051970;28;20074;-77
2023/12/05 03:50:45;;;;;;;17.48;11.23;;;;;;;0.98;85.32;97547.38;5057864;28;20028;-77
2023/12/05 03:53:10;;;;;;;17.90;11.48;;;;;;;0.40;85.34;97545.13;5060620;28;21694;-77
2023/12/05 03:55:36;;;;;;;22.08;11.85;;;;;;;0.73;86.40;97553.50;5067396;28;20826;-77
2023/12/05 03:58:02;;;;;;;18.95;10.93;;;;;;;0.52;85.78;97540.78;5066445;28;20036;-77
2023/12/05 04:00:27;;;;;;;18.33;10.70;;;;;;;0.78;85.74;97531.84;5062198;28;20028;-77
2023/12/05 04:02:53;;;;;;;20.08;11.90;;;;;;;0.63;85.06;97529.53;5034404;28;20108;-78
2023/12/05 04:05:18;;;;;;;16.33;9.77;;;;;;;0.53;87.25;97531.06;5066038;28;20042;-78
2023/12/05 04:07:44;;;;;;;20.65;11.50;;;;;;;0.38;86.75;97535.88;5062828;28;20485;-77
2023/12/05 04:10:10;;;;;;;20.20;11.35;;;;;;;0.70;85.97;97538.16;5063764;28;20666;-79
2023/12/05 04:12:35;;;;;;;17.27;10.98;;;;;;;0.89;84.80;97540.81;5067442;28;20060;-75
2023/12/05 04:15:01;;;;;;;17.83;11.63;;;;;;;0.42;86.50;97539.66;5066489;28;20133;-75
2023/12/05 04:17:26;;;;;;;17.30;11.18;;;;;;;0.29;85.38;97537.16;5065484;28;20183;-75
2023/12/05 04:19:52;;;;;;;20.58;11.63;;;;;;;0.26;87.69;97527.09;5059218;28;20055;-77
2023/12/05 04:22:17;;;;;;;22.50;12.18;;;;;;;0.42;86.28;97535.22;5060485;28;20656;-77
2023/12/05 04:24:42;;;;;;;18.35;12.15;;;;;;;0.71;86.68;97536.34;5058871;28;20036;-77
2023/12/05 04:27:08;;;;;;;19.30;12.82;;;;;;;0.77;85.74;97532.84;5062017;28;20029;-77
2023/12/05 04:29:33;;;;;;;18.67;11.23;;;;;;;0.94;86.70;97539.13;5062160;28;20120;-77
2023/12/05 04:32:01;;;;;;;20.90;12.02;;;;;;;0.31;86.54;97528.03;5066559;28;20033;-77
2023/12/05 04:34:27;;;;;;;18.63;10.65;;;;;;;0.88;87.83;97532.13;5058367;28;20035;-76
2023/12/05 04:36:52;;;;;;;23.10;13.35;;;;;;;-0.01;86.49;97537.81;5059138;28;20029;-75
2023/12/05 04:39:17;;;;;;;20.92;12.25;;;;;;;0.38;88.42;97530.63;5060844;28;20028;-75
2023/12/05 04:41:43;;;;;;;22.95;13.73;;;;;;;0.80;86.60;97523.72;5056809;28;20028;-75
2023/12/05 04:44:08;;;;;;;18.60;11.43;;;;;;;0.96;85.55;97534.44;5056025;28;20044;-74
2023/12/05 04:46:39;;;;;;;16.50;10.38;;;;;;;0.49;87.22;97527.28;5059263;28;20566;-74
2023/12/05 04:49:08;;;;;;;18.95;12.43;;;;;;;0.59;87.14;97528.38;5058259;28;20041;-74
2023/12/05 04:51:34;;;;;;;19.55;11.18;;;;;;;0.48;87.66;97517.81;5055486;28;21996;-78
2023/12/05 04:54:00;;;;;;;18.80;11.10;;;;;;;1.22;86.74;97523.63;5059192;28;20033;-77
2023/12/05 04:56:26;;;;;;;23.42;12.38;;;;;;;0.80;85.32;97518.47;5051763;28;20039;-75
2023/12/05 04:58:51;;;;;;;16.88;10.27;;;;;;;1.11;86.51;97510.44;5056986;28;21912;-75
2023/12/05 05:01:17;;;;;;;18.92;10.63;;;;;;;0.87;86.38;97521.84;5053249;28;20036;-75
2023/12/05 05:03:42;;;;;;;20.02;12.18;;;;;;;0.67;85.72;97522.06;5054331;28;20029;-76
2023/12/05 05:06:08;;;;;;;18.77;10.73;;;;;;;0.93;85.67;97515.69;5064664;28;20059;-75
2023/12/05 05:08:33;;;;;;;20.10;12.13;;;;;;;0.62;86.79;97521.91;5062650;28;20111;-75
2023/12/05 05:10:59;;;;;;;14.00;9.73;;;;;;;0.57;87.10;97513.88;5057308;28;20044;-75
2023/12/05 05:13:24;;;;;;;17.38;10.65;;;;;;;1.05;86.81;97522.63;5052799;28;20037;-75
2023/12/05 05:15:49;;;;;;;18.83;11.00;;;;;;;1.27;85.98;97523.75;5057643;28;20083;-75
2023/12/05 05:18:15;;;;;;;17.67;11.13;;;;;;;1.09;84.27;97515.13;5054590;28;20043;-75
2023/12/05 05:20:41;;;;;;;17.70;10.20;;;;;;;1.59;85.02;97521.72;5057961;28;20024;-75
2023/12/05 05:23:06;;;;;;;19.60;10.77;;;;;;;1.52;84.13;97516.56;5054735;28;20029;-75
2023/12/05 05:25:31;;;;;;;17.73;10.40;;;;;;;0.95;84.67;97521.53;5057664;28;20037;-75
2023/12/05 05:27:57;;;;;;;18.95;10.98;;;;;;;0.80;86.49;97521.09;5057961;28;20033;-74
2023/12/05 05:30:22;;;;;;;17.92;10.82;;;;;;;0.53;86.07;97515.31;5055893;28;20195;-76
2023/12/05 05:32:47;;;;;;;17.83;9.68;;;;;;;1.12;86.20;97525.97;5058087;28;20152;-74
2023/12/05 05:35:13;;;;;;;15.60;10.27;;;;;;;1.71;84.96;97525.19;5058034;28;20396;-74
2023/12/05 05:37:38;;;;;;;18.80;10.20;;;;;;;1.35;85.50;97523.47;5054836;28;20085;-74
2023/12/05 05:40:06;;;;;;;19.38;10.63;;;;;;;0.76;86.31;97511.03;5055636;28;20130;-74
2023/12/05 05:42:31;;;;;;;17.25;11.50;;;;;;;0.96;86.43;97512.66;5052065;28;20131;-75
2023/12/05 05:44:57;;;;;;;16.27;11.00;;;;;;;1.08;86.16;97508.25;5054772;28;20474;-78
2023/12/05 05:47:22;;;;;;;17.52;10.45;;;;;;;1.40;85.08;97514.91;5059378;28;20516;-76
2023/12/05 05:49:47;;;;;;;16.08;11.25;;;;;;;1.28;85.25;97519.31;5061228;28;20022;-75
2023/12/05 05:52:13;;;;;;;18.10;12.00;;;;;;;0.51;85.32;97505.06;5055199;28;20259;-75
2023/12/05 05:54:38;;;;;;;17.55;10.23;;;;;;;1.13;86.32;97506.56;5053249;28;20072;-75
2023/12/05 05:57:04;;;;;;;19.08;11.77;;;;;;;0.51;85.97;97505.06;5054407;28;20056;-75
2023/12/05 05:59:29;;;;;;;20.20;11.18;;;;;;;0.71;86.95;97504.84;5050639;28;20036;-74
2023/12/05 06:01:54;;;;;;;19.85;11.60;;;;;;;0.83;85.76;97510.94;5054494;28;20051;-74
2023/12/05 06:04:20;;;;;;;18.55;11.90;;;;;;;0.67;86.16;97501.88;5067893;28;20071;-75
2023/12/05 06:06:45;;;;;;;20.27;12.23;;;;;;;0.53;86.06;97504.81;5059893;28;20036;-74
2023/12/05 06:09:11;;;;;;;21.55;12.73;;;;;;;0.73;85.77;97500.16;5057200;28;20055;-75
2023/12/05 06:11:36;;;;;;;21.63;12.93;;;;;;;0.67;86.18;97495.81;5058236;28;20029;-75
2023/12/05 06:14:03;;;;;;;19.77;13.07;;;;;;;0.84;86.13;97504.69;5063123;28;20056;-75
2023/12/05 06:16:28;;;;;;;21.80;13.50;;;;;;;0.95;86.22;97511.84;5058061;28;20397;-75
2023/12/05 06:18:54;;;;;;;25.77;13.00;;;;;;;0.74;86.77;97512.28;5065702;28;20042;-75
2023/12/05 06:21:19;;;;;;;20.35;12.38;;;;;;;0.39;85.23;97516.50;5059812;28;20091;-75
2023/12/05 06:23:44;;;;;;;19.13;13.20;;;;;;;0.26;88.56;97527.09;5062204;28;20040;-75
2023/12/05 06:26:10;;;;;;;22.38;11.60;;;;;;;0.35;88.92;97518.72;5056739;28;20037;-75
2023/12/05 06:28:35;;;;;;;20.70;12.38;;;;;;;0.49;88.99;97524.66;5063592;28;20496;-75
2023/12/05 06:31:01;;;;;;;21.35;13.30;;;;;;;0.41;87.43;97522.31;5057403;28;20036;-76
2023/12/05 06:33:26;;;;;;;22.83;12.02;;;;;;;0.96;87.97;97515.28;5053574;28;20043;-76
2023/12/05 06:35:51;;;;;;;21.73;13.45;;;;;;;0.64;87.00;97522.47;5051254;28;20482;-76
2023/12/05 06:38:17;;;;;;;21.88;12.02;;;;;;;0.86;87.44;97514.97;5063320;28;20041;-76
2023/12/05 06:40:42;;;;;;;21.60;11.98;;;;;;;1.03;86.51;97500.22;5060934;28;20029;-76
2023/12/05 06:43:07;;;;;;;21.23;12.38;;;;;;;1.13;86.17;97503.94;5060014;28;20036;-76
2023/12/05 06:45:36;;;;;;;21.42;12.85;;;;;;;1.00;85.50;97508.56;5059790;28;20032;-76
2023/12/05 06:48:02;;;;;;;22.05;12.60;;;;;;;1.02;86.13;97511.75;5056308;28;20029;-76
2023/12/05 06:50:27;;;;;;;21.83;13.23;;;;;;;0.50;86.60;97519.19;5054937;28;20037;-76
2023/12/05 06:52:57;;;;;;;21.23;13.15;;;;;;;0.57;87.66;97514.66;5054705;28;20028;-76
2023/12/05 06:55:25;;;;;;;18.75;12.43;;;;;;;0.70;87.58;97511.09;5058897;28;20033;-76
2023/12/05 06:57:51;;;;;;;24.80;14.43;;;;;;;0.94;86.05;97518.09;5051133;28;20033;-76
2023/12/05 07:00:18;;;;;;;24.08;14.00;;;;;;;0.57;86.65;97521.75;5058273;28;20102;-76
2023/12/05 07:02:43;;;;;;;18.88;11.95;;;;;;;0.70;87.18;97511.09;5058468;28;20074;-76
2023/12/05 07:05:09;;;;;;;18.98;12.70;;;;;;;0.91;86.05;97515.94;5050167;28;20127;-75
2023/12/05 07:07:34;;;;;;;22.20;12.75;;;;;;;1.07;86.96;97519.78;5055703;28;20055;-74
2023/12/05 07:10:00;;;;;;;23.35;15.43;;;;;;;0.72;85.82;97530.88;5061358;28;20052;-74
2023/12/05 07:12:26;;;;;;;19.02;12.63;;;;;;;0.81;86.13;97525.34;5063675;28;20082;-74
2023/12/05 07:14:51;;;;;;;19.20;11.02;;;;;;;0.94;86.75;97530.47;5059502;28;20478;-74
2023/12/05 07:17:18;;;;;;;22.73;13.82;;;;;;;0.92;86.43;97535.13;5055649;28;20036;-75
2023/12/05 07:19:48;;;;;;;25.90;13.38;;;;;;;0.91;86.54;97533.50;5064032;28;20056;-81
2023/12/05 07:22:14;;;;;;;22.33;13.27;;;;;;;0.89;86.71;97541.63;5058373;28;20025;-75
2023/12/05 07:24:40;;;;;;;19.13;12.88;;;;;;;0.81;86.87;97544.50;5059870;28;20071;-75
2023/12/05 07:27:05;;;;;;;21.33;13.30;;;;;;;0.95;85.89;97535.47;5069124;28;20040;-75
2023/12/05 07:29:30;;;;;;;18.60;12.88;;;;;;;0.86;86.51;97544.66;5066404;28;20028;-74
2023/12/05 07:31:57;;;;;;;23.02;13.77;;;;;;;0.84;86.56;97546.72;5048447;28;20032;-75
2023/12/05 07:34:23;;;;;;;17.15;11.48;;;;;;;1.13;86.16;97545.19;5058956;28;20056;-75
2023/12/05 07:36:48;;;;;;;21.65;13.57;;;;;;;0.97;85.78;97549.19;5069116;28;20056;-75
2023/12/05 07:39:14;;;;;;;23.27;12.57;;;;;;;1.22;85.61;97541.22;5064877;28;20091;-75
2023/12/05 07:41:40;;;;;;;19.38;12.95;;;;;;;1.18;85.61;97545.31;5063233;28;20514;-75
2023/12/05 07:44:06;;;;;;;17.40;11.88;;;;;;;1.23;85.95;97546.25;5071270;28;20032;-75
2023/12/05 07:46:32;;;;;;;20.65;12.95;;;;;;;1.10;85.45;97554.28;5066567;28;20040;-75
2023/12/05 07:48:58;;;;;;;20.67;12.20;;;;;;;1.00;85.96;97547.97;5072955;28;20042;-75
2023/12/05 07:51:23;;;;;;;19.05;12.27;;;;;;;1.00;86.92;97547.97;5065528;28;20037;-75
2023/12/05 07:53:53;;;;;;;24.38;14.13;;;;;;;0.93;85.11;97542.78;5059336;28;20039;-75
2023/12/05 07:56:18;;;;;;;22.42;13.07;;;;;;;0.60;86.05;97547.56;5064323;28;20069;-75
2023/12/05 07:58:43;;;;;;;18.73;12.07;;;;;;;0.82;86.88;97551.38;5064008;28;20032;-75
2023/12/05 08:01:09;;;;;;;19.60;13.05;;;;;;;1.12;86.02;97544.38;5061432;28;20097;-75
2023/12/05 08:03:34;;;;;;;21.80;13.23;;;;;;;1.23;86.21;97553.34;5065645;28;20029;-75
2023/12/05 08:06:01;;;;;;;22.65;13.05;;;;;;;1.08;85.61;97558.16;5068451;28;20036;-75
2023/12/05 08:08:30;;;;;;;26.50;15.40;;;;;;;0.73;87.02;97556.13;5073255;28;20651;-75
2023/12/05 08:10:55;;;;;;;24.30;13.02;;;;;;;1.06;86.47;97557.59;5053686;28;20033;-75
2023/12/05 08:13:20;;;;;;;21.67;14.10;;;;;;;1.13;86.29;97553.88;5057660;28;20027;-75
2023/12/05 08:15:46;;;;;;;23.27;15.15;;;;;;;0.94;86.41;97554.88;5065516;28;20028;-75
2023/12/05 08:18:11;;;;;;;22.17;14.65;;;;;;;1.06;86.51;97550.50;5068257;28;20040;-75
2023/12/05 08:20:36;;;;;;;24.98;15.52;;;;;;;0.92;86.70;97554.28;5071285;28;20119;-75
2023/12/05 08:23:02;;;;;;;18.90;13.57;;;;;;;1.10;86.62;97549.03;5062561;28;20025;-75
2023/12/05 08:25:27;;;;;;;27.88;21.40;;;;;;;0.61;86.79;97554.44;5063047;28;20390;-75
2023/12/05 08:27:52;;;;;;;26.13;16.08;;;;;;;0.52;89.22;97550.47;5036836;28;20504;-75
2023/12/05 08:30:18;;;;;;;24.00;15.23;;;;;;;1.04;87.52;97549.13;5065402;28;20028;-75
2023/12/05 08:32:43;;;;;;;23.15;15.38;;;;;;;0.74;87.41;97562.19;5067130;28;20032;-75
2023/12/05 08:35:09;;;;;;;21.75;14.05;;;;;;;1.23;86.87;97569.91;5060244;28;20025;-75
2023/12/05 08:37:34;;;;;;;27.73;15.48;;;;;;;1.04;86.48;97572.75;5066954;28;20101;-75
2023/12/05 08:40:00;;;;;;;21.65;14.00;;;;;;;0.77;86.56;97570.41;5064228;28;20041;-75
2023/12/05 08:42:27;;;;;;;22.75;14.40;;;;;;;1.17;86.44;97581.31;5068932;28;20032;-75
2023/12/05 08:44:54;;;;;;;24.95;13.95;;;;;;;0.59;87.38;97573.00;5067238;28;20031;-75
2023/12/05 08:47:19;;;;;;;24.55;14.45;;;;;;;0.96;86.93;97586.19;5061421;28;20032;-75
2023/12/05 08:49:44;;;;;;;22.80;13.77;;;;;;;0.80;87.62;97590.19;5063459;28;20033;-75
2023/12/05 08:52:10;;;;;;;26.00;15.07;;;;;;;1.05;87.14;97582.25;5063640;28;20075;-74
2023/12/05 08:54:35;;;;;;;22.27;13.07;;;;;;;1.03;85.84;97579.03;5068138;28;20218;-75
2023/12/05 08:57:00;;;;;;;25.63;14.75;;;;;;;0.99;85.97;97578.66;5061264;28;20060;-75
2023/12/05 08:59:26;;;;;;;21.13;13.70;;;;;;;0.94;87.04;97598.75;5053901;28;20508;-74
2023/12/05 09:01:51;;;;;;;20.88;13.38;;;;;;;1.35;86.07;97583.94;5066354;28;20472;-74
2023/12/05 09:04:16;;;;;;;21.58;13.60;;;;;;;1.30;85.48;97583.78;5058099;28;20532;-75
2023/12/05 09:06:42;;;;;;;20.67;12.85;;;;;;;1.10;85.69;97587.63;5064193;28;20020;-75
2023/12/05 09:09:08;;;;;;;20.23;13.30;;;;;;;0.81;86.70;97596.25;5064767;28;20048;-74
2023/12/05 09:11:33;;;;;;;19.35;12.18;;;;;;;1.19;86.38;97587.13;5065803;28;20490;-75
2023/12/05 09:13:59;;;;;;;25.45;14.63;;;;;;;1.02;85.84;97594.00;5062198;28;20051;-75
2023/12/05 09:16:24;;;;;;;20.20;13.13;;;;;;;1.35;85.17;97583.94;5068224;28;20044;-75
2023/12/05 09:18:51;;;;;;;22.77;14.15;;;;;;;1.23;85.97;97590.94;5062343;28;20124;-74
2023/12/05 09:21:17;;;;;;;22.27;13.70;;;;;;;1.29;86.12;97592.66;5066452;28;20028;-74
2023/12/05 09:23:42;;;;;;;22.85;14.63;;;;;;;1.28;84.92;97600.78;5050059;28;20021;-75
2023/12/05 09:26:08;;;;;;;21.77;13.25;;;;;;;1.11;86.60;97602.41;5060896;28;20718;-74
2023/12/05 09:28:34;;;;;;;21.17;12.82;;;;;;;1.63;84.11;97593.88;5069205;28;20036;-74
2023/12/05 09:30:59;;;;;;;25.55;14.88;;;;;;;1.02;85.49;97603.69;5065178;28;20036;-74
2023/12/05 09:33:25;;;;;;;22.05;13.73;;;;;;;1.28;86.23;97608.66;5070751;28;20024;-74
2023/12/05 09:35:50;;;;;;;23.33;13.02;;;;;;;1.28;85.92;97601.59;5071761;28;20545;-74
2023/12/05 09:38:16;;;;;;;22.02;12.55;;;;;;;1.36;85.83;97611.78;5061805;28;20095;-74
2023/12/05 09:40:41;;;;;;;24.33;14.68;;;;;;;1.46;85.09;97612.06;5060442;28;20121;-74
2023/12/05 09:43:08;;;;;;;20.90;13.45;;;;;;;1.49;84.90;97609.00;5066993;28;20529;-74
2023/12/05 09:45:42;;;;;;;20.70;13.32;;;;;;;1.68;83.91;97611.63;5068191;28;20056;-74
2023/12/05 09:48:11;;;;;;;19.15;13.15;;;;;;;1.55;84.48;97614.41;5054468;28;20486;-74
2023/12/05 09:50:37;;;;;;;19.58;15.20;;;;;;;1.01;85.94;97613.41;5068255;28;20035;-74
2023/12/05 09:53:04;;;;;;;19.52;11.95;;;;;;;1.19;86.77;97610.78;5062681;28;20040;-74
2023/12/05 09:55:30;;;;;;;19.30;12.48;;;;;;;0.92;87.57;97612.06;5063811;28;20027;-74
2023/12/05 09:57:57;;;;;;;21.35;14.02;;;;;;;1.08;86.67;97608.88;5062975;28;20028;-74
2023/12/05 10:00:26;;;;;;;22.58;14.98;;;;;;;1.09;86.85;97614.94;5063444;28;20036;-74
2023/12/05 10:02:52;;;;;;;22.00;14.20;;;;;;;0.80;88.83;97620.88;5061672;28;20049;-74
2023/12/05 10:05:20;;;;;;;27.02;17.90;;;;;;;0.53;88.96;97621.13;5060050;28;20807;-74
2023/12/05 10:07:47;;;;;;;23.20;13.95;;;;;;;0.61;90.07;97622.69;5061428;28;20135;-75
2023/12/05 10:10:15;;;;;;;25.40;16.33;;;;;;;0.24;91.46;97618.34;5068588;28;20084;-74
2023/12/05 10:12:41;;;;;;;29.70;17.77;;;;;;;0.09;91.33;97609.97;5061753;28;20028;-73
2023/12/05 10:15:07;;;;;;;21.23;14.48;;;;;;;0.84;88.99;97614.19;5065698;28;20405;-75
2023/12/05 10:17:34;;;;;;;26.75;16.75;;;;;;;-0.02;91.20;97614.88;5067969;28;20678;-74
2023/12/05 10:19:59;;;;;;;24.98;15.80;;;;;;;0.05;92.43;97616.63;5069985;28;20063;-74
2023/12/05 10:22:26;;;;;;;26.33;17.13;;;;;;;0.15;93.08;97614.38;5064677;28;20028;-74
2023/12/05 10:24:54;;;;;;;23.70;15.90;;;;;;;0.24;93.69;97610.47;5064340;28;20028;-74
2023/12/05 10:27:19;;;;;;;29.17;16.80;;;;;;;0.49;91.81;97613.91;5067716;28;20558;-74
2023/12/05 10:29:45;;;;;;;30.58;19.42;;;;;;;0.10;92.64;97611.56;5064177;28;20079;-73
2023/12/05 10:32:12;;;;;;;21.70;13.40;;;;;;;0.30;93.74;97612.25;5062991;28;20025;-74
2023/12/05 10:34:52;;;;;;;26.50;16.10;;;;;;;0.43;93.47;97609.50;5065139;28;20067;-74
2023/12/05 10:37:21;;;;;;;26.98;16.23;;;;;;;0.73;91.11;97613.06;5063075;28;20036;-74
2023/12/05 10:39:49;;;;;;;26.75;17.63;;;;;;;0.56;91.22;97614.66;5065738;28;20039;-74
2023/12/05 10:42:14;;;;;;;27.52;16.13;;;;;;;0.32;92.10;97615.44;5067757;28;20119;-74
2023/12/05 10:44:40;;;;;;;23.52;13.95;;;;;;;0.74;91.57;97607.59;5062415;28;20123;-74
2023/12/05 10:47:06;;;;;;;26.83;16.55;;;;;;;0.59;91.24;97609.75;5063175;28;20043;-74
2023/12/05 10:49:34;;;;;;;25.92;15.45;;;;;;;0.63;91.25;97603.06;5060203;28;20037;-74
2023/12/05 10:52:02;;;;;;;24.00;13.95;;;;;;;1.10;89.56;97601.59;5061568;28;20050;-74
2023/12/05 10:54:27;;;;;;;19.88;12.65;;;;;;;1.37;87.52;97597.66;5057765;28;20128;-74
2023/12/05 10:56:59;;;;;;;17.25;12.68;;;;;;;1.20;88.20;97599.25;5059993;28;20037;-74
2023/12/05 10:59:27;;;;;;;22.85;12.98;;;;;;;1.40;87.18;97599.00;5059794;28;20117;-74
2023/12/05 11:01:56;;;;;;;19.10;11.90;;;;;;;1.48;86.33;97599.53;5060455;28;20048;-75
2023/12/05 11:04:23;;;;;;;23.25;14.50;;;;;;;0.96;87.95;97600.09;5059379;28;20035;-74
2023/12/05 11:06:49;;;;;;;19.23;12.35;;;;;;;1.10;88.92;97593.69;5058991;28;20047;-75
2023/12/05 11:09:15;;;;;;;19.58;11.93;;;;;;;1.39;87.24;97590.34;5058670;28;20037;-74
2023/12/05 11:11:43;;;;;;;20.85;12.85;;;;;;;1.40;87.14;97589.31;5057775;28;20052;-75
2023/12/05 11:14:11;;;;;;;16.77;10.70;;;;;;;1.65;86.30;97589.19;5055212;28;20029;-75
2023/12/05 11:16:41;;;;;;;21.10;13.65;;;;;;;1.51;86.04;97596.44;5061744;28;20489;-75
2023/12/05 11:19:50;;;;;;;19.98;12.68;;;;;;;1.33;87.46;97588.56;5051345;28;20059;-75
2023/12/05 11:22:55;;;;;;;22.98;12.85;;;;;;;1.22;87.40;97602.44;5059124;28;20552;-74